sensor_id;sensor_type;location;lat;lon;timestamp;pressure;altitude;pressure_sealevel;temperature;humidity
84024;BME280;74109;45.636;25.582;2023-12-20T00:02:05;94956.52;;;-0.70;71.05
84024;BME280;74109;45.636;25.582;2023-12-20T00:04:33;94953.21;;;-0.74;70.70
84024;BME280;74109;45.636;25.582;2023-12-20T00:07:01;94952.78;;;-0.76;71.25
84024;BME280;74109;45.636;25.582;2023-12-20T00:09:30;94948.58;;;-0.82;71.78
84024;BME280;74109;45.636;25.582;2023-12-20T00:11:58;94943.74;;;-0.86;71.34
84024;BME280;74109;45.636;25.582;2023-12-20T00:14:26;94942.27;;;-0.85;70.82
84024;BME280;74109;45.636;25.582;2023-12-20T00:16:54;94942.84;;;-0.81;70.76
84024;BME280;74109;45.636;25.582;2023-12-20T00:19:30;94936.20;;;-0.78;71.33
84024;BME280;74109;45.636;25.582;2023-12-20T00:21:58;94934.86;;;-0.76;71.17
84024;BME280;74109;45.636;25.582;2023-12-20T00:24:28;94933.95;;;-0.74;71.11
84024;BME280;74109;45.636;25.582;2023-12-20T00:26:56;94932.02;;;-0.74;70.95
84024;BME280;74109;45.636;25.582;2023-12-20T00:29:24;94927.38;;;-0.76;70.84
84024;BME280;74109;45.636;25.582;2023-12-20T00:31:52;94923.51;;;-0.76;70.60
84024;BME280;74109;45.636;25.582;2023-12-20T00:34:20;94919.21;;;-0.77;70.78
84024;BME280;74109;45.636;25.582;2023-12-20T00:36:49;94920.26;;;-0.79;70.69
84024;BME280;74109;45.636;25.582;2023-12-20T00:39:17;94913.39;;;-0.83;70.63
84024;BME280;74109;45.636;25.582;2023-12-20T00:41:45;94906.13;;;-0.85;70.61
84024;BME280;74109;45.636;25.582;2023-12-20T00:44:13;94903.92;;;-0.88;70.53
84024;BME280;74109;45.636;25.582;2023-12-20T00:46:45;94901.63;;;-0.84;70.33
84024;BME280;74109;45.636;25.582;2023-12-20T00:49:13;94898.94;;;-0.81;70.56
84024;BME280;74109;45.636;25.582;2023-12-20T00:51:41;94894.91;;;-0.78;71.03
84024;BME280;74109;45.636;25.582;2023-12-20T00:54:09;94891.33;;;-0.81;70.92
84024;BME280;74109;45.636;25.582;2023-12-20T00:56:38;94887.59;;;-0.86;70.83
84024;BME280;74109;45.636;25.582;2023-12-20T00:59:06;94885.45;;;-0.88;70.77
84024;BME280;74109;45.636;25.582;2023-12-20T01:01:34;94886.16;;;-0.89;70.66
84024;BME280;74109;45.636;25.582;2023-12-20T01:04:03;94885.30;;;-0.90;70.91
84024;BME280;74109;45.636;25.582;2023-12-20T01:06:31;94883.83;;;-0.92;70.91
84024;BME280;74109;45.636;25.582;2023-12-20T01:08:59;94875.09;;;-0.95;71.00
84024;BME280;74109;45.636;25.582;2023-12-20T01:11:28;94873.08;;;-0.99;70.86
84024;BME280;74109;45.636;25.582;2023-12-20T01:13:56;94868.63;;;-1.03;70.62
84024;BME280;74109;45.636;25.582;2023-12-20T01:16:24;94863.47;;;-1.06;70.68
84024;BME280;74109;45.636;25.582;2023-12-20T01:18:52;94860.40;;;-1.07;70.70
84024;BME280;74109;45.636;25.582;2023-12-20T01:21:20;94856.62;;;-1.03;70.98
84024;BME280;74109;45.636;25.582;2023-12-20T01:23:49;94847.85;;;-1.01;71.08
84024;BME280;74109;45.636;25.582;2023-12-20T01:26:17;94838.09;;;-1.00;70.94
84024;BME280;74109;45.636;25.582;2023-12-20T01:28:45;94837.50;;;-0.98;70.68
84024;BME280;74109;45.636;25.582;2023-12-20T01:31:13;94833.11;;;-0.98;70.47
84024;BME280;74109;45.636;25.582;2023-12-20T01:33:41;94828.98;;;-0.98;70.68
84024;BME280;74109;45.636;25.582;2023-12-20T01:36:09;94823.70;;;-0.99;70.48
84024;BME280;74109;45.636;25.582;2023-12-20T01:38:39;94817.41;;;-1.05;71.24
84024;BME280;74109;45.636;25.582;2023-12-20T01:41:07;94816.33;;;-1.10;71.29
84024;BME280;74109;45.636;25.582;2023-12-20T01:43:35;94815.83;;;-1.14;71.30
84024;BME280;74109;45.636;25.582;2023-12-20T01:46:18;94809.70;;;-1.18;71.26
84024;BME280;74109;45.636;25.582;2023-12-20T01:48:48;94803.13;;;-1.23;71.36
84024;BME280;74109;45.636;25.582;2023-12-20T01:51:17;94798.80;;;-1.26;71.00
84024;BME280;74109;45.636;25.582;2023-12-20T01:53:46;94786.67;;;-1.27;71.32
84024;BME280;74109;45.636;25.582;2023-12-20T01:56:15;94775.65;;;-1.27;71.46
84024;BME280;74109;45.636;25.582;2023-12-20T01:58:45;94770.02;;;-1.23;71.47
84024;BME280;74109;45.636;25.582;2023-12-20T02:01:14;94766.48;;;-1.21;72.12
84024;BME280;74109;45.636;25.582;2023-12-20T02:03:43;94758.20;;;-1.22;72.28
84024;BME280;74109;45.636;25.582;2023-12-20T02:06:12;94750.91;;;-1.22;71.72
84024;BME280;74109;45.636;25.582;2023-12-20T02:08:40;94752.04;;;-1.20;71.57
84024;BME280;74109;45.636;25.582;2023-12-20T02:11:10;94750.33;;;-1.19;71.73
84024;BME280;74109;45.636;25.582;2023-12-20T02:13:38;94751.84;;;-1.22;71.50
84024;BME280;74109;45.636;25.582;2023-12-20T02:16:07;94756.52;;;-1.23;71.35
84024;BME280;74109;45.636;25.582;2023-12-20T02:18:35;94752.92;;;-1.29;72.16
84024;BME280;74109;45.636;25.582;2023-12-20T02:21:05;94747.90;;;-1.34;71.78
84024;BME280;74109;45.636;25.582;2023-12-20T02:23:33;94741.44;;;-1.37;71.82
84024;BME280;74109;45.636;25.582;2023-12-20T02:26:03;94734.96;;;-1.39;72.33
84024;BME280;74109;45.636;25.582;2023-12-20T02:28:33;94730.69;;;-1.38;71.84
84024;BME280;74109;45.636;25.582;2023-12-20T02:31:02;94727.74;;;-1.36;71.92
84024;BME280;74109;45.636;25.582;2023-12-20T02:33:32;94725.02;;;-1.34;72.18
84024;BME280;74109;45.636;25.582;2023-12-20T02:36:00;94725.08;;;-1.30;72.10
84024;BME280;74109;45.636;25.582;2023-12-20T02:38:29;94721.17;;;-1.30;71.99
84024;BME280;74109;45.636;25.582;2023-12-20T02:40:57;94721.52;;;-1.30;71.85
84024;BME280;74109;45.636;25.582;2023-12-20T02:43:26;94717.89;;;-1.33;71.93
84024;BME280;74109;45.636;25.582;2023-12-20T02:45:54;94712.86;;;-1.34;71.58
84024;BME280;74109;45.636;25.582;2023-12-20T02:48:22;94709.32;;;-1.36;71.50
84024;BME280;74109;45.636;25.582;2023-12-20T02:50:51;94707.44;;;-1.39;71.64
84024;BME280;74109;45.636;25.582;2023-12-20T02:53:20;94707.83;;;-1.42;71.69
84024;BME280;74109;45.636;25.582;2023-12-20T02:55:48;94705.92;;;-1.45;71.64
84024;BME280;74109;45.636;25.582;2023-12-20T02:58:16;94711.75;;;-1.44;71.04
84024;BME280;74109;45.636;25.582;2023-12-20T03:00:46;94709.65;;;-1.46;71.75
84024;BME280;74109;45.636;25.582;2023-12-20T03:03:14;94708.77;;;-1.47;71.89
84024;BME280;74109;45.636;25.582;2023-12-20T03:05:43;94707.44;;;-1.47;71.58
84024;BME280;74109;45.636;25.582;2023-12-20T03:08:11;94700.15;;;-1.49;71.95
84024;BME280;74109;45.636;25.582;2023-12-20T03:10:41;94703.38;;;-1.47;71.48
84024;BME280;74109;45.636;25.582;2023-12-20T03:13:09;94701.77;;;-1.48;71.77
84024;BME280;74109;45.636;25.582;2023-12-20T03:15:38;94695.98;;;-1.48;71.33
84024;BME280;74109;45.636;25.582;2023-12-20T03:18:06;94698.59;;;-1.49;71.59
84024;BME280;74109;45.636;25.582;2023-12-20T03:20:34;94693.80;;;-1.53;71.48
84024;BME280;74109;45.636;25.582;2023-12-20T03:23:03;94693.48;;;-1.56;71.83
84024;BME280;74109;45.636;25.582;2023-12-20T03:25:31;94685.25;;;-1.58;71.70
84024;BME280;74109;45.636;25.582;2023-12-20T03:28:00;94684.87;;;-1.57;71.61
84024;BME280;74109;45.636;25.582;2023-12-20T03:30:28;94682.98;;;-1.57;71.63
84024;BME280;74109;45.636;25.582;2023-12-20T03:32:56;94682.63;;;-1.55;71.73
84024;BME280;74109;45.636;25.582;2023-12-20T03:35:24;94679.58;;;-1.56;71.80
84024;BME280;74109;45.636;25.582;2023-12-20T03:37:52;94680.55;;;-1.55;71.76
84024;BME280;74109;45.636;25.582;2023-12-20T03:40:21;94677.38;;;-1.61;72.09
84024;BME280;74109;45.636;25.582;2023-12-20T03:42:50;94669.44;;;-1.63;71.71
84024;BME280;74109;45.636;25.582;2023-12-20T03:45:18;94663.42;;;-1.65;71.73
84024;BME280;74109;45.636;25.582;2023-12-20T03:47:46;94661.23;;;-1.65;72.41
84024;BME280;74109;45.636;25.582;2023-12-20T03:50:16;94655.32;;;-1.68;72.82
84024;BME280;74109;45.636;25.582;2023-12-20T03:52:44;94651.97;;;-1.69;72.28
84024;BME280;74109;45.636;25.582;2023-12-20T03:55:12;94651.34;;;-1.71;71.92
84024;BME280;74109;45.636;25.582;2023-12-20T03:57:41;94648.76;;;-1.71;71.69
84024;BME280;74109;45.636;25.582;2023-12-20T04:00:10;94644.67;;;-1.70;71.86
84024;BME280;74109;45.636;25.582;2023-12-20T04:03:00;94644.48;;;-1.67;71.87
84024;BME280;74109;45.636;25.582;2023-12-20T04:05:28;94645.64;;;-1.65;72.19
84024;BME280;74109;45.636;25.582;2023-12-20T04:07:56;94637.41;;;-1.64;72.05
84024;BME280;74109;45.636;25.582;2023-12-20T04:10:24;94639.80;;;-1.66;72.74
84024;BME280;74109;45.636;25.582;2023-12-20T04:12:53;94640.33;;;-1.70;72.39
84024;BME280;74109;45.636;25.582;2023-12-20T04:15:22;94631.71;;;-1.72;72.10
84024;BME280;74109;45.636;25.582;2023-12-20T04:17:50;94630.16;;;-1.69;71.84
84024;BME280;74109;45.636;25.582;2023-12-20T04:20:19;94625.13;;;-1.68;71.59
84024;BME280;74109;45.636;25.582;2023-12-20T04:22:47;94621.33;;;-1.66;71.50
84024;BME280;74109;45.636;25.582;2023-12-20T04:25:15;94618.42;;;-1.67;71.70
84024;BME280;74109;45.636;25.582;2023-12-20T04:27:44;94618.05;;;-1.71;71.94
84024;BME280;74109;45.636;25.582;2023-12-20T04:30:13;94618.46;;;-1.76;72.44
84024;BME280;74109;45.636;25.582;2023-12-20T04:32:50;94616.11;;;-1.79;72.36
84024;BME280;74109;45.636;25.582;2023-12-20T04:35:22;94608.79;;;-1.74;71.88
84024;BME280;74109;45.636;25.582;2023-12-20T04:37:50;94608.59;;;-1.71;72.09
84024;BME280;74109;45.636;25.582;2023-12-20T04:40:18;94607.20;;;-1.68;72.30
84024;BME280;74109;45.636;25.582;2023-12-20T04:42:47;94608.66;;;-1.66;72.13
84024;BME280;74109;45.636;25.582;2023-12-20T04:45:15;94607.59;;;-1.64;71.96
84024;BME280;74109;45.636;25.582;2023-12-20T04:47:44;94609.00;;;-1.64;71.73
84024;BME280;74109;45.636;25.582;2023-12-20T04:50:15;94604.44;;;-1.66;71.60
84024;BME280;74109;45.636;25.582;2023-12-20T04:52:43;94606.13;;;-1.69;71.47
84024;BME280;74109;45.636;25.582;2023-12-20T04:55:12;94607.27;;;-1.72;71.53
84024;BME280;74109;45.636;25.582;2023-12-20T04:57:40;94604.45;;;-1.75;71.70
84024;BME280;74109;45.636;25.582;2023-12-20T05:00:09;94608.73;;;-1.75;71.78
84024;BME280;74109;45.636;25.582;2023-12-20T05:02:37;94608.34;;;-1.78;71.54
84024;BME280;74109;45.636;25.582;2023-12-20T05:05:06;94606.70;;;-1.78;71.52
84024;BME280;74109;45.636;25.582;2023-12-20T05:07:34;94609.95;;;-1.75;71.95
84024;BME280;74109;45.636;25.582;2023-12-20T05:10:03;94609.65;;;-1.71;72.11
84024;BME280;74109;45.636;25.582;2023-12-20T05:12:32;94603.52;;;-1.70;71.88
84024;BME280;74109;45.636;25.582;2023-12-20T05:15:00;94603.83;;;-1.71;71.97
84024;BME280;74109;45.636;25.582;2023-12-20T05:17:29;94600.29;;;-1.70;71.50
84024;BME280;74109;45.636;25.582;2023-12-20T05:19:57;94601.00;;;-1.71;71.79
84024;BME280;74109;45.636;25.582;2023-12-20T05:22:26;94598.12;;;-1.74;72.17
84024;BME280;74109;45.636;25.582;2023-12-20T05:24:55;94599.05;;;-1.78;71.55
84024;BME280;74109;45.636;25.582;2023-12-20T05:27:24;94594.55;;;-1.79;71.59
84024;BME280;74109;45.636;25.582;2023-12-20T05:29:52;94590.63;;;-1.80;71.71
84024;BME280;74109;45.636;25.582;2023-12-20T05:32:20;94586.17;;;-1.82;71.83
84024;BME280;74109;45.636;25.582;2023-12-20T05:34:48;94582.11;;;-1.85;72.08
84024;BME280;74109;45.636;25.582;2023-12-20T05:37:17;94577.79;;;-1.84;71.55
84024;BME280;74109;45.636;25.582;2023-12-20T05:39:45;94573.38;;;-1.81;71.86
84024;BME280;74109;45.636;25.582;2023-12-20T05:42:14;94568.48;;;-1.77;72.24
84024;BME280;74109;45.636;25.582;2023-12-20T05:44:42;94565.10;;;-1.74;71.94
84024;BME280;74109;45.636;25.582;2023-12-20T05:47:11;94566.84;;;-1.73;71.70
84024;BME280;74109;45.636;25.582;2023-12-20T05:49:40;94566.18;;;-1.73;71.83
84024;BME280;74109;45.636;25.582;2023-12-20T05:52:08;94561.86;;;-1.74;71.72
84024;BME280;74109;45.636;25.582;2023-12-20T05:54:37;94559.77;;;-1.73;71.74
84024;BME280;74109;45.636;25.582;2023-12-20T05:57:05;94556.59;;;-1.74;71.72
84024;BME280;74109;45.636;25.582;2023-12-20T05:59:34;94554.80;;;-1.76;72.02
84024;BME280;74109;45.636;25.582;2023-12-20T06:02:03;94552.97;;;-1.79;71.97
84024;BME280;74109;45.636;25.582;2023-12-20T06:04:32;94551.02;;;-1.83;72.78
84024;BME280;74109;45.636;25.582;2023-12-20T06:07:01;94549.04;;;-1.85;72.04
84024;BME280;74109;45.636;25.582;2023-12-20T06:09:30;94542.63;;;-1.85;72.03
84024;BME280;74109;45.636;25.582;2023-12-20T06:11:59;94539.77;;;-1.82;71.51
84024;BME280;74109;45.636;25.582;2023-12-20T06:14:28;94538.85;;;-1.77;72.11
84024;BME280;74109;45.636;25.582;2023-12-20T06:16:57;94532.25;;;-1.74;72.34
84024;BME280;74109;45.636;25.582;2023-12-20T06:19:25;94532.41;;;-1.73;72.49
84024;BME280;74109;45.636;25.582;2023-12-20T06:21:54;94530.64;;;-1.69;72.49
84024;BME280;74109;45.636;25.582;2023-12-20T06:24:22;94527.61;;;-1.68;72.32
84024;BME280;74109;45.636;25.582;2023-12-20T06:26:50;94532.34;;;-1.66;71.88
84024;BME280;74109;45.636;25.582;2023-12-20T06:29:19;94532.42;;;-1.67;72.51
84024;BME280;74109;45.636;25.582;2023-12-20T06:31:47;94531.45;;;-1.69;72.41
84024;BME280;74109;45.636;25.582;2023-12-20T06:34:15;94534.67;;;-1.69;72.50
84024;BME280;74109;45.636;25.582;2023-12-20T06:36:44;94531.59;;;-1.69;72.38
84024;BME280;74109;45.636;25.582;2023-12-20T06:39:15;94535.23;;;-1.66;71.91
84024;BME280;74109;45.636;25.582;2023-12-20T06:41:43;94535.23;;;-1.66;72.09
84024;BME280;74109;45.636;25.582;2023-12-20T06:44:11;94532.52;;;-1.68;72.18
84024;BME280;74109;45.636;25.582;2023-12-20T06:46:40;94534.83;;;-1.65;71.89
84024;BME280;74109;45.636;25.582;2023-12-20T06:49:09;94538.09;;;-1.61;72.22
84024;BME280;74109;45.636;25.582;2023-12-20T06:51:37;94542.70;;;-1.55;72.34
84024;BME280;74109;45.636;25.582;2023-12-20T06:54:05;94538.07;;;-1.52;72.27
84024;BME280;74109;45.636;25.582;2023-12-20T06:56:34;94537.14;;;-1.50;72.46
84024;BME280;74109;45.636;25.582;2023-12-20T06:59:02;94537.40;;;-1.49;72.58
84024;BME280;74109;45.636;25.582;2023-12-20T07:01:30;94535.88;;;-1.48;72.68
84024;BME280;74109;45.636;25.582;2023-12-20T07:03:58;94537.38;;;-1.46;72.74
84024;BME280;74109;45.636;25.582;2023-12-20T07:06:26;94531.88;;;-1.46;72.39
84024;BME280;74109;45.636;25.582;2023-12-20T07:08:54;94528.77;;;-1.45;71.96
84024;BME280;74109;45.636;25.582;2023-12-20T07:11:22;94521.96;;;-1.45;72.22
84024;BME280;74109;45.636;25.582;2023-12-20T07:13:51;94521.23;;;-1.43;72.46
84024;BME280;74109;45.636;25.582;2023-12-20T07:16:19;94524.02;;;-1.42;72.37
84024;BME280;74109;45.636;25.582;2023-12-20T07:18:48;94522.03;;;-1.41;72.09
84024;BME280;74109;45.636;25.582;2023-12-20T07:21:16;94518.05;;;-1.37;71.83
84024;BME280;74109;45.636;25.582;2023-12-20T07:23:44;94514.08;;;-1.30;71.99
84024;BME280;74109;45.636;25.582;2023-12-20T07:26:12;94508.64;;;-1.21;72.21
84024;BME280;74109;45.636;25.582;2023-12-20T07:28:41;94506.48;;;-1.12;72.11
84024;BME280;74109;45.636;25.582;2023-12-20T07:31:10;94501.06;;;-1.07;71.89
84024;BME280;74109;45.636;25.582;2023-12-20T07:33:38;94502.66;;;-1.03;71.64
84024;BME280;74109;45.636;25.582;2023-12-20T07:36:07;94497.56;;;-1.02;71.83
84024;BME280;74109;45.636;25.582;2023-12-20T07:38:36;94489.44;;;-0.99;71.62
84024;BME280;74109;45.636;25.582;2023-12-20T07:41:04;94493.45;;;-0.93;71.58
84024;BME280;74109;45.636;25.582;2023-12-20T07:43:33;94488.77;;;-0.85;72.22
84024;BME280;74109;45.636;25.582;2023-12-20T07:46:06;94485.41;;;-0.76;72.13
84024;BME280;74109;45.636;25.582;2023-12-20T07:48:35;94486.55;;;-0.64;72.40
84024;BME280;74109;45.636;25.582;2023-12-20T07:51:04;94481.09;;;-0.52;72.24
84024;BME280;74109;45.636;25.582;2023-12-20T07:53:34;94479.80;;;-0.34;72.07
84024;BME280;74109;45.636;25.582;2023-12-20T07:56:13;94480.13;;;-0.12;72.33
84024;BME280;74109;45.636;25.582;2023-12-20T07:58:42;94480.08;;;0.14;72.40
84024;BME280;74109;45.636;25.582;2023-12-20T08:01:20;94481.91;;;0.41;72.27
84024;BME280;74109;45.636;25.582;2023-12-20T08:03:50;94482.89;;;0.63;71.39
84024;BME280;74109;45.636;25.582;2023-12-20T08:06:19;94476.60;;;0.81;71.31
84024;BME280;74109;45.636;25.582;2023-12-20T08:08:48;94478.52;;;0.99;71.01
84024;BME280;74109;45.636;25.582;2023-12-20T08:11:28;94477.06;;;1.15;70.33
84024;BME280;74109;45.636;25.582;2023-12-20T08:13:57;94471.92;;;1.32;70.25
84024;BME280;74109;45.636;25.582;2023-12-20T08:16:26;94467.57;;;1.44;69.54
84024;BME280;74109;45.636;25.582;2023-12-20T08:18:54;94465.33;;;1.55;69.17
84024;BME280;74109;45.636;25.582;2023-12-20T08:21:22;94458.15;;;1.65;69.32
84024;BME280;74109;45.636;25.582;2023-12-20T08:23:51;94455.61;;;1.77;68.57
84024;BME280;74109;45.636;25.582;2023-12-20T08:26:20;94450.21;;;1.88;68.38
84024;BME280;74109;45.636;25.582;2023-12-20T08:28:50;94443.73;;;1.95;67.91
84024;BME280;74109;45.636;25.582;2023-12-20T08:31:18;94441.95;;;2.01;67.70
84024;BME280;74109;45.636;25.582;2023-12-20T08:33:48;94440.83;;;2.10;67.44
84024;BME280;74109;45.636;25.582;2023-12-20T08:36:16;94435.22;;;2.16;67.01
84024;BME280;74109;45.636;25.582;2023-12-20T08:38:45;94428.11;;;2.23;67.31
84024;BME280;74109;45.636;25.582;2023-12-20T08:41:14;94425.98;;;2.32;67.68
84024;BME280;74109;45.636;25.582;2023-12-20T08:43:42;94420.92;;;2.46;67.39
84024;BME280;74109;45.636;25.582;2023-12-20T08:46:10;94413.27;;;2.57;67.44
84024;BME280;74109;45.636;25.582;2023-12-20T08:48:40;94414.48;;;2.67;66.96
84024;BME280;74109;45.636;25.582;2023-12-20T08:51:22;94405.29;;;2.69;65.81
84024;BME280;74109;45.636;25.582;2023-12-20T08:53:53;94399.09;;;2.71;66.42
84024;BME280;74109;45.636;25.582;2023-12-20T08:56:21;94402.16;;;2.76;65.87
84024;BME280;74109;45.636;25.582;2023-12-20T08:58:49;94395.21;;;2.78;65.49
84024;BME280;74109;45.636;25.582;2023-12-20T09:01:18;94396.07;;;2.81;65.58
84024;BME280;74109;45.636;25.582;2023-12-20T09:03:46;94390.46;;;2.85;65.79
84024;BME280;74109;45.636;25.582;2023-12-20T09:06:14;94384.66;;;2.85;65.69
84024;BME280;74109;45.636;25.582;2023-12-20T09:08:43;94373.83;;;2.87;65.89
84024;BME280;74109;45.636;25.582;2023-12-20T09:11:11;94362.73;;;2.87;65.46
84024;BME280;74109;45.636;25.582;2023-12-20T09:13:40;94359.06;;;2.88;65.78
84024;BME280;74109;45.636;25.582;2023-12-20T09:16:08;94351.13;;;2.91;65.74
84024;BME280;74109;45.636;25.582;2023-12-20T09:18:36;94348.06;;;2.95;65.46
84024;BME280;74109;45.636;25.582;2023-12-20T09:21:05;94345.41;;;3.00;65.94
84024;BME280;74109;45.636;25.582;2023-12-20T09:23:33;94341.64;;;3.06;66.16
84024;BME280;74109;45.636;25.582;2023-12-20T09:26:01;94339.61;;;3.11;65.59
84024;BME280;74109;45.636;25.582;2023-12-20T09:28:29;94332.77;;;3.15;65.69
84024;BME280;74109;45.636;25.582;2023-12-20T09:30:57;94326.98;;;3.21;66.27
84024;BME280;74109;45.636;25.582;2023-12-20T09:33:26;94320.30;;;3.25;66.10
84024;BME280;74109;45.636;25.582;2023-12-20T09:35:54;94311.83;;;3.26;66.10
84024;BME280;74109;45.636;25.582;2023-12-20T09:38:22;94309.55;;;3.23;65.66
84024;BME280;74109;45.636;25.582;2023-12-20T09:40:51;94303.41;;;3.16;65.10
84024;BME280;74109;45.636;25.582;2023-12-20T09:43:20;94296.59;;;3.21;65.75
84024;BME280;74109;45.636;25.582;2023-12-20T09:46:00;94292.86;;;3.28;65.58
84024;BME280;74109;45.636;25.582;2023-12-20T09:48:31;94278.71;;;3.35;65.13
84024;BME280;74109;45.636;25.582;2023-12-20T09:50:59;94280.21;;;3.35;64.63
84024;BME280;74109;45.636;25.582;2023-12-20T09:53:28;94280.07;;;3.34;64.91
84024;BME280;74109;45.636;25.582;2023-12-20T09:55:58;94277.58;;;3.35;65.21
84024;BME280;74109;45.636;25.582;2023-12-20T09:58:28;94272.98;;;3.37;65.21
84024;BME280;74109;45.636;25.582;2023-12-20T10:00:56;94268.64;;;3.40;65.20
84024;BME280;74109;45.636;25.582;2023-12-20T10:03:25;94261.14;;;3.42;64.99
84024;BME280;74109;45.636;25.582;2023-12-20T10:05:56;94251.76;;;3.49;65.49
84024;BME280;74109;45.636;25.582;2023-12-20T10:08:25;94245.63;;;3.60;65.37
84024;BME280;74109;45.636;25.582;2023-12-20T10:10:54;94244.67;;;3.68;65.13
84024;BME280;74109;45.636;25.582;2023-12-20T10:13:23;94237.44;;;3.72;64.72
84024;BME280;74109;45.636;25.582;2023-12-20T10:15:51;94235.46;;;3.72;63.95
84024;BME280;74109;45.636;25.582;2023-12-20T10:18:20;94229.84;;;3.75;64.28
84024;BME280;74109;45.636;25.582;2023-12-20T10:20:49;94224.02;;;3.80;64.42
84024;BME280;74109;45.636;25.582;2023-12-20T10:23:17;94218.54;;;3.86;64.83
84024;BME280;74109;45.636;25.582;2023-12-20T10:25:56;94214.38;;;3.94;64.26
84024;BME280;74109;45.636;25.582;2023-12-20T10:28:25;94204.45;;;4.01;63.70
84024;BME280;74109;45.636;25.582;2023-12-20T10:30:57;94200.23;;;4.05;63.17
84024;BME280;74109;45.636;25.582;2023-12-20T10:33:27;94208.08;;;4.11;63.61
84024;BME280;74109;45.636;25.582;2023-12-20T10:35:56;94208.89;;;4.17;63.64
84024;BME280;74109;45.636;25.582;2023-12-20T10:38:25;94204.39;;;4.22;63.29
84024;BME280;74109;45.636;25.582;2023-12-20T10:40:56;94198.41;;;4.18;62.31
84024;BME280;74109;45.636;25.582;2023-12-20T10:43:30;94200.23;;;4.13;62.31
84024;BME280;74109;45.636;25.582;2023-12-20T10:45:59;94195.91;;;4.14;62.67
84024;BME280;74109;45.636;25.582;2023-12-20T10:48:28;94189.64;;;4.20;63.27
84024;BME280;74109;45.636;25.582;2023-12-20T10:50:59;94182.09;;;4.28;63.13
84024;BME280;74109;45.636;25.582;2023-12-20T10:53:28;94175.13;;;4.40;63.09
84024;BME280;74109;45.636;25.582;2023-12-20T10:56:00;94169.75;;;4.52;63.12
84024;BME280;74109;45.636;25.582;2023-12-20T10:58:32;94163.11;;;4.63;63.00
84024;BME280;74109;45.636;25.582;2023-12-20T11:01:02;94158.39;;;4.69;62.41
84024;BME280;74109;45.636;25.582;2023-12-20T11:03:35;94156.23;;;4.72;62.63
84024;BME280;74109;45.636;25.582;2023-12-20T11:08:50;94145.83;;;4.82;62.98
84024;BME280;74109;45.636;25.582;2023-12-20T11:11:37;94139.48;;;4.84;62.17
84024;BME280;74109;45.636;25.582;2023-12-20T11:14:14;94134.17;;;4.83;62.11
84024;BME280;74109;45.636;25.582;2023-12-20T11:16:45;94133.07;;;4.84;62.48
84024;BME280;74109;45.636;25.582;2023-12-20T11:19:22;94124.64;;;4.86;62.63
84024;BME280;74109;45.636;25.582;2023-12-20T11:21:50;94122.36;;;4.87;62.57
84024;BME280;74109;45.636;25.582;2023-12-20T11:24:21;94118.91;;;4.89;62.59
84024;BME280;74109;45.636;25.582;2023-12-20T11:26:55;94114.62;;;4.95;62.47
84024;BME280;74109;45.636;25.582;2023-12-20T11:29:35;94108.23;;;5.00;62.15
84024;BME280;74109;45.636;25.582;2023-12-20T11:34:56;94103.74;;;5.15;61.77
84024;BME280;74109;45.636;25.582;2023-12-20T11:37:35;94101.44;;;5.18;61.23
84024;BME280;74109;45.636;25.582;2023-12-20T11:40:08;94097.89;;;5.21;61.57
84024;BME280;74109;45.636;25.582;2023-12-20T11:42:40;94095.55;;;5.22;61.28
84024;BME280;74109;45.636;25.582;2023-12-20T11:45:10;94089.03;;;5.20;61.36
84024;BME280;74109;45.636;25.582;2023-12-20T11:47:38;94086.44;;;5.15;61.82
84024;BME280;74109;45.636;25.582;2023-12-20T11:50:07;94083.86;;;5.10;61.72
84024;BME280;74109;45.636;25.582;2023-12-20T11:52:35;94082.77;;;5.02;61.90
84024;BME280;74109;45.636;25.582;2023-12-20T11:55:04;94076.09;;;4.97;62.24
84024;BME280;74109;45.636;25.582;2023-12-20T11:57:33;94078.08;;;4.93;62.01
84024;BME280;74109;45.636;25.582;2023-12-20T12:00:05;94075.63;;;4.92;62.24
84024;BME280;74109;45.636;25.582;2023-12-20T12:02:39;94074.13;;;4.89;62.41
84024;BME280;74109;45.636;25.582;2023-12-20T12:05:08;94067.95;;;4.88;62.63
84024;BME280;74109;45.636;25.582;2023-12-20T12:07:36;94061.36;;;4.86;62.56
84024;BME280;74109;45.636;25.582;2023-12-20T12:10:06;94061.25;;;4.89;63.31
84024;BME280;74109;45.636;25.582;2023-12-20T12:12:34;94056.60;;;4.93;63.23
84024;BME280;74109;45.636;25.582;2023-12-20T12:15:04;94046.90;;;4.93;63.41
84024;BME280;74109;45.636;25.582;2023-12-20T12:17:33;94045.42;;;4.93;63.25
84024;BME280;74109;45.636;25.582;2023-12-20T12:20:05;94043.13;;;4.92;62.89
84024;BME280;74109;45.636;25.582;2023-12-20T12:22:33;94038.44;;;4.91;62.65
84024;BME280;74109;45.636;25.582;2023-12-20T12:25:12;94026.80;;;4.92;63.09
84024;BME280;74109;45.636;25.582;2023-12-20T12:27:41;94017.34;;;4.93;62.69
84024;BME280;74109;45.636;25.582;2023-12-20T12:30:11;94016.30;;;4.94;62.79
84024;BME280;74109;45.636;25.582;2023-12-20T12:32:41;94011.91;;;4.94;62.96
84024;BME280;74109;45.636;25.582;2023-12-20T12:35:10;94006.97;;;4.94;63.02
84024;BME280;74109;45.636;25.582;2023-12-20T12:37:39;94000.30;;;4.91;63.04
84024;BME280;74109;45.636;25.582;2023-12-20T12:40:15;93992.39;;;4.84;63.08
84024;BME280;74109;45.636;25.582;2023-12-20T12:42:45;93991.31;;;4.77;63.09
84024;BME280;74109;45.636;25.582;2023-12-20T12:45:13;93986.08;;;4.71;63.50
84024;BME280;74109;45.636;25.582;2023-12-20T12:47:42;93986.55;;;4.69;63.52
84024;BME280;74109;45.636;25.582;2023-12-20T12:50:11;93982.21;;;4.65;63.36
84024;BME280;74109;45.636;25.582;2023-12-20T12:52:39;93989.88;;;4.61;63.42
84024;BME280;74109;45.636;25.582;2023-12-20T12:55:07;93988.25;;;4.61;63.61
84024;BME280;74109;45.636;25.582;2023-12-20T12:57:36;93983.59;;;4.61;63.91
84024;BME280;74109;45.636;25.582;2023-12-20T13:00:04;93980.06;;;4.62;64.39
84024;BME280;74109;45.636;25.582;2023-12-20T13:02:36;93977.77;;;4.64;64.14
84024;BME280;74109;45.636;25.582;2023-12-20T13:05:06;93976.16;;;4.65;64.02
84024;BME280;74109;45.636;25.582;2023-12-20T13:07:35;93981.23;;;4.64;63.76
84024;BME280;74109;45.636;25.582;2023-12-20T13:10:06;93988.25;;;4.61;63.56
84024;BME280;74109;45.636;25.582;2023-12-20T13:12:34;93986.52;;;4.57;63.54